createdAt,value
2022-12-18T05:15:44.875Z,5.55
2022-12-18T05:18:11.652Z,7.00
2022-12-18T05:20:38.160Z,7.28
2022-12-18T05:23:04.764Z,4.35
2022-12-18T05:25:31.469Z,4.63
2022-12-18T05:27:57.983Z,6.43
2022-12-18T05:30:24.608Z,5.05
2022-12-18T05:32:51.191Z,5.32
2022-12-18T05:35:17.764Z,6.88
2022-12-18T05:37:44.388Z,5.38
2022-12-18T05:40:11.409Z,7.05
2022-12-18T05:42:38.675Z,6.38
2022-12-18T05:45:06.221Z,6.28
2022-12-18T05:47:32.726Z,8.32
2022-12-18T05:49:59.539Z,7.00
2022-12-18T05:52:26.272Z,6.78
2022-12-18T05:54:52.982Z,6.70
2022-12-18T05:57:19.710Z,5.38
2022-12-18T05:59:46.245Z,5.65
2022-12-18T06:02:12.923Z,4.22
2022-12-18T06:04:39.643Z,6.90
2022-12-18T06:07:08.745Z,6.20
2022-12-18T06:09:35.285Z,5.50
2022-12-18T06:12:03.040Z,5.80
2022-12-18T06:14:29.875Z,5.95
2022-12-18T06:16:56.488Z,5.93
2022-12-18T06:19:23.157Z,7.45
2022-12-18T06:21:50.298Z,8.68
2022-12-18T06:24:17.000Z,5.85
2022-12-18T06:26:43.961Z,6.60
2022-12-18T06:29:10.527Z,6.45
2022-12-18T06:31:37.241Z,6.05
2022-12-18T06:34:08.283Z,5.93
2022-12-18T06:36:35.025Z,6.40
2022-12-18T06:39:02.006Z,6.88
2022-12-18T06:41:28.774Z,5.82
2022-12-18T06:43:59.552Z,6.15
2022-12-18T06:46:28.681Z,6.27
2022-12-18T06:48:55.253Z,8.20
2022-12-18T06:51:23.401Z,8.57
2022-12-18T06:53:50.647Z,5.07
2022-12-18T06:56:17.378Z,7.25
2022-12-18T06:58:44.080Z,6.43
2022-12-18T07:01:12.681Z,7.18
2022-12-18T07:03:43.802Z,8.63
2022-12-18T07:06:19.599Z,7.88
2022-12-18T07:08:47.706Z,8.45
2022-12-18T07:11:15.023Z,6.03
2022-12-18T07:13:42.105Z,7.00
2022-12-18T07:16:23.921Z,7.75
2022-12-18T07:18:51.739Z,6.47
2022-12-18T07:21:20.648Z,6.10
2022-12-18T07:23:49.352Z,6.25
2022-12-18T07:26:18.629Z,7.22
2022-12-18T07:28:46.380Z,5.15
2022-12-18T07:31:17.236Z,6.28
2022-12-18T07:33:46.070Z,6.65
2022-12-18T07:36:13.374Z,6.38
2022-12-18T07:38:41.450Z,4.93
2022-12-18T07:41:10.903Z,7.32
2022-12-18T07:43:38.852Z,6.22
2022-12-18T07:46:07.005Z,5.20
2022-12-18T07:48:33.941Z,7.88
2022-12-18T07:51:01.595Z,8.15
2022-12-18T07:53:28.735Z,7.97
2022-12-18T07:56:25.969Z,5.07
2022-12-18T07:58:48.530Z,6.57
2022-12-18T08:01:16.541Z,8.55
2022-12-18T08:04:09.442Z,6.43
2022-12-18T08:06:37.087Z,7.53
2022-12-18T08:09:03.719Z,7.50
2022-12-18T08:11:30.957Z,7.30
2022-12-18T08:13:58.735Z,5.28
2022-12-18T08:16:26.136Z,5.78
2022-12-18T08:18:54.786Z,8.48
2022-12-18T08:21:27.962Z,7.88
2022-12-18T08:23:57.415Z,7.47
2022-12-18T08:26:26.400Z,7.55
2022-12-18T08:28:55.273Z,6.15
2022-12-18T08:31:22.285Z,8.82
2022-12-18T08:33:53.154Z,7.68
2022-12-18T08:36:21.629Z,7.95
2022-12-18T08:38:48.517Z,6.82
2022-12-18T08:41:16.710Z,7.78
2022-12-18T08:44:01.973Z,6.72
2022-12-18T08:46:35.637Z,7.78
2022-12-18T08:49:02.227Z,7.63
2022-12-18T08:51:29.730Z,8.35
2022-12-18T08:53:56.228Z,7.60
2022-12-18T08:56:23.057Z,8.65
2022-12-18T08:58:52.954Z,7.78
2022-12-18T09:01:20.124Z,10.43
2022-12-18T09:03:46.827Z,9.80
2022-12-18T09:06:21.765Z,7.05
2022-12-18T09:08:48.557Z,9.02
2022-12-18T09:11:29.432Z,7.95
2022-12-18T09:13:58.135Z,7.60
2022-12-18T09:16:31.738Z,7.97
2022-12-18T09:19:00.820Z,9.63
2022-12-18T09:21:52.006Z,9.48
2022-12-18T09:27:05.676Z,8.52
2022-12-18T09:29:38.744Z,8.35
2022-12-18T09:35:10.337Z,12.90
2022-12-18T09:37:37.117Z,10.50
2022-12-18T09:40:04.833Z,12.38
2022-12-18T09:42:34.678Z,10.05
2022-12-18T09:45:02.133Z,9.45
2022-12-18T09:47:36.045Z,10.80
2022-12-18T09:50:06.875Z,10.25
2022-12-18T09:52:50.379Z,11.32
2022-12-18T09:55:37.475Z,11.83
2022-12-18T09:58:21.726Z,11.55
2022-12-18T10:00:48.400Z,11.02
2022-12-18T10:03:16.749Z,12.98
2022-12-18T10:06:03.597Z,13.35
2022-12-18T10:08:50.072Z,12.02
2022-12-18T10:11:50.032Z,12.35
2022-12-18T10:14:35.215Z,12.30
2022-12-18T10:17:43.306Z,12.05
2022-12-18T10:20:29.441Z,12.45
2022-12-18T10:23:09.390Z,11.25
2022-12-18T10:25:46.349Z,12.50
2022-12-18T10:28:19.062Z,12.93
2022-12-18T10:30:45.670Z,12.73
2022-12-18T10:33:17.998Z,12.30
2022-12-18T10:35:45.879Z,13.18
2022-12-18T10:38:49.141Z,14.82
2022-12-18T10:41:27.383Z,15.05
2022-12-18T10:44:23.312Z,15.73
2022-12-18T10:47:10.143Z,13.68
2022-12-18T10:49:49.401Z,16.15
2022-12-18T10:52:19.993Z,15.10
2022-12-18T10:55:04.832Z,16.23
2022-12-18T10:57:38.318Z,14.32
2022-12-18T11:00:35.380Z,16.20
2022-12-18T11:03:44.736Z,15.07
2022-12-18T11:06:14.838Z,15.90
2022-12-18T11:08:44.613Z,15.02
2022-12-18T11:11:38.753Z,15.85
2022-12-18T11:14:21.102Z,16.20
2022-12-18T11:17:23.660Z,15.57
2022-12-18T11:19:42.062Z,14.05
2022-12-18T11:22:26.097Z,15.80
2022-12-18T11:25:30.982Z,15.43
2022-12-18T11:27:55.602Z,14.73
2022-12-18T11:30:25.695Z,16.08
2022-12-18T11:32:56.955Z,15.73
2022-12-18T11:35:26.559Z,16.15
2022-12-18T11:38:03.922Z,17.85
2022-12-18T11:40:41.147Z,15.45
2022-12-18T11:43:16.095Z,16.20
2022-12-18T11:46:06.334Z,16.55
2022-12-18T11:48:47.316Z,16.20
2022-12-18T11:51:29.023Z,15.05
2022-12-18T11:53:56.532Z,15.50
2022-12-18T11:56:37.349Z,16.85
2022-12-18T11:59:36.830Z,17.13
2022-12-18T12:02:22.539Z,15.52
2022-12-18T12:05:00.294Z,16.80
2022-12-18T12:07:57.534Z,14.70
2022-12-18T12:10:27.152Z,16.45
2022-12-18T12:13:20.700Z,14.45
2022-12-18T12:16:01.337Z,15.77
2022-12-18T12:18:49.925Z,18.52
2022-12-18T12:21:57.774Z,16.08
2022-12-18T12:24:36.866Z,16.70
2022-12-18T12:27:15.865Z,15.52
2022-12-18T12:30:28.177Z,14.23
2022-12-18T12:33:01.598Z,14.88
2022-12-18T12:36:04.309Z,15.93
2022-12-18T12:38:56.455Z,15.18
2022-12-18T12:41:45.714Z,15.93
2022-12-18T12:44:31.738Z,14.77
2022-12-18T12:47:08.039Z,15.70
2022-12-18T12:49:40.315Z,17.13
2022-12-18T12:52:13.699Z,15.75
2022-12-18T12:54:40.794Z,15.00
2022-12-18T12:57:17.482Z,13.70
2022-12-18T12:59:59.938Z,15.75
2022-12-18T13:02:33.582Z,15.05
2022-12-18T13:05:26.094Z,15.93
2022-12-18T13:08:10.928Z,13.70
2022-12-18T13:10:42.121Z,15.13
2022-12-18T13:13:17.160Z,15.68
2022-12-18T13:16:08.291Z,15.07
2022-12-18T13:18:36.207Z,15.38
2022-12-18T13:21:19.110Z,14.82
2022-12-18T13:23:46.194Z,14.35
2022-12-18T13:26:16.967Z,14.02
2022-12-18T13:28:49.449Z,15.50
2022-12-18T13:31:40.774Z,15.52
2022-12-18T13:34:26.690Z,14.73
2022-12-18T13:37:17.672Z,14.07
2022-12-18T13:39:44.356Z,14.63
2022-12-18T13:42:30.926Z,15.52
2022-12-18T13:44:57.604Z,15.93
2022-12-18T13:47:33.336Z,16.05
2022-12-18T13:50:00.928Z,15.27
2022-12-18T13:52:38.308Z,14.70
2022-12-18T13:55:08.581Z,15.20
2022-12-18T13:57:41.741Z,14.48
2022-12-18T14:00:25.755Z,16.10
2022-12-18T14:02:53.442Z,15.88
2022-12-18T14:05:33.234Z,15.15
2022-12-18T14:08:11.178Z,16.73
2022-12-18T14:10:48.448Z,13.95
2022-12-18T14:13:28.899Z,14.00
2022-12-18T14:15:57.319Z,14.43
2022-12-18T14:18:33.780Z,14.75
2022-12-18T14:21:02.907Z,14.98
2022-12-18T14:23:37.076Z,14.85
2022-12-18T14:26:24.397Z,14.43
2022-12-18T14:28:51.173Z,14.90
2022-12-18T14:31:26.413Z,16.35
2022-12-18T14:33:54.077Z,14.82
2022-12-18T14:36:24.349Z,15.25
2022-12-18T14:38:59.676Z,14.82
2022-12-18T14:41:27.398Z,15.48
2022-12-18T14:43:55.460Z,16.50
2022-12-18T14:46:36.587Z,15.70
2022-12-18T14:49:31.340Z,14.32
2022-12-18T14:52:32.310Z,14.95
2022-12-18T14:54:59.197Z,12.57
2022-12-18T14:57:31.045Z,15.60
2022-12-18T15:00:15.703Z,15.52
2022-12-18T15:02:43.601Z,15.40
2022-12-18T15:05:13.490Z,16.27
2022-12-18T15:07:55.245Z,15.57
2022-12-18T15:10:27.183Z,16.05
2022-12-18T15:12:56.631Z,17.02
2022-12-18T15:15:38.622Z,16.00
2022-12-18T15:18:14.084Z,16.73
2022-12-18T15:20:53.315Z,16.08
2022-12-18T15:23:26.886Z,14.52
2022-12-18T15:25:59.664Z,15.95
2022-12-18T15:28:48.458Z,17.15
2022-12-18T15:31:17.031Z,14.15
2022-12-18T15:34:01.139Z,14.38
2022-12-18T15:36:27.707Z,14.30
2022-12-18T15:39:04.834Z,14.13
2022-12-18T15:41:36.219Z,14.00
2022-12-18T15:44:04.622Z,16.38
2022-12-18T15:46:31.942Z,15.70
2022-12-18T15:49:02.387Z,15.43
2022-12-18T15:51:32.627Z,15.77
2022-12-18T15:54:01.730Z,14.77
2022-12-18T15:56:47.031Z,15.55
2022-12-18T15:59:16.898Z,15.63
2022-12-18T16:01:47.029Z,16.00
2022-12-18T16:04:15.364Z,13.98
2022-12-18T16:07:12.800Z,16.02
2022-12-18T16:09:29.488Z,16.15
2022-12-18T16:11:56.094Z,16.58
2022-12-18T16:14:28.099Z,13.45
2022-12-18T16:17:01.186Z,14.48
2022-12-18T16:19:28.466Z,14.68
2022-12-18T16:21:56.942Z,17.15
2022-12-18T16:24:26.491Z,17.45
2022-12-18T16:26:54.577Z,14.30
2022-12-18T16:29:28.531Z,16.90
2022-12-18T16:31:56.849Z,14.00
2022-12-18T16:34:29.274Z,17.15
2022-12-18T16:37:05.769Z,15.10
2022-12-18T16:39:37.503Z,18.25
2022-12-18T16:42:17.114Z,17.70
2022-12-18T16:44:48.685Z,16.40
2022-12-18T16:47:17.040Z,16.63
2022-12-18T16:49:46.546Z,16.35
2022-12-18T16:52:13.400Z,14.95
2022-12-18T16:54:41.273Z,16.13
2022-12-18T16:57:10.972Z,16.30
2022-12-18T16:59:38.319Z,16.08
2022-12-18T17:02:09.766Z,15.60
2022-12-18T17:04:38.030Z,15.30
2022-12-18T17:07:05.657Z,14.60
2022-12-18T17:09:32.650Z,17.25
2022-12-18T17:12:03.640Z,16.63
2022-12-18T17:19:52.583Z,14.95
2022-12-18T17:22:19.943Z,16.27
2022-12-18T17:24:47.674Z,17.70
2022-12-18T17:27:15.073Z,17.30
2022-12-18T17:29:47.432Z,14.43
2022-12-18T17:32:14.938Z,16.33
2022-12-18T17:34:42.688Z,15.60
2022-12-18T17:37:13.229Z,15.50
2022-12-18T17:39:42.751Z,15.93
2022-12-18T17:42:15.186Z,15.98
2022-12-18T17:44:42.895Z,17.77
2022-12-18T17:47:12.140Z,16.30
2022-12-18T17:49:38.811Z,15.15
2022-12-18T17:52:08.112Z,16.83
2022-12-18T17:54:38.817Z,16.83
2022-12-18T17:57:09.683Z,14.93
2022-12-18T17:59:36.414Z,15.30
2022-12-18T18:02:24.233Z,16.60
2022-12-18T18:05:03.399Z,16.83
2022-12-18T18:14:52.293Z,17.00
2022-12-18T18:17:19.323Z,16.20
2022-12-18T18:19:45.946Z,14.40
2022-12-18T18:22:17.248Z,16.50
2022-12-18T18:24:46.827Z,17.05
2022-12-18T18:27:13.615Z,14.93
2022-12-18T18:29:40.495Z,15.38
2022-12-18T18:32:24.650Z,17.98
2022-12-18T18:34:52.245Z,17.13
2022-12-18T18:37:19.839Z,16.45
2022-12-18T18:39:46.381Z,16.23
2022-12-18T18:42:13.072Z,15.88
2022-12-18T18:44:42.293Z,18.60
2022-12-18T18:47:13.034Z,16.95
2022-12-18T18:49:45.970Z,17.63
2022-12-18T18:55:20.505Z,17.00
2022-12-18T18:57:54.768Z,16.42
2022-12-18T19:33:51.289Z,14.13
2022-12-18T19:36:23.243Z,17.05
2022-12-18T19:38:51.901Z,19.17
2022-12-18T19:41:19.905Z,17.63
2022-12-18T19:43:48.204Z,17.42
2022-12-18T19:46:19.452Z,16.73
2022-12-18T19:48:51.083Z,17.88
2022-12-18T19:51:20.906Z,15.82
2022-12-18T19:53:48.235Z,14.98
2022-12-18T19:56:17.256Z,17.25
2022-12-18T19:58:45.141Z,15.35
2022-12-18T20:01:17.101Z,20.35
2022-12-18T20:03:51.596Z,20.77
2022-12-18T20:06:29.389Z,18.17
2022-12-18T20:09:00.320Z,18.33
2022-12-18T20:11:28.863Z,19.73
2022-12-18T20:13:56.253Z,19.10
2022-12-18T20:16:23.266Z,17.88
2022-12-18T20:18:50.302Z,17.40
2022-12-18T20:21:18.004Z,18.10
2022-12-18T20:23:47.337Z,17.08
2022-12-18T20:26:17.036Z,18.35
2022-12-18T20:28:47.040Z,18.40
2022-12-18T20:31:14.345Z,18.52
2022-12-18T20:33:52.059Z,16.95
2022-12-18T20:39:06.581Z,17.48
2022-12-18T20:41:38.341Z,20.58
2022-12-18T20:44:21.674Z,16.25
2022-12-18T20:49:23.262Z,17.38
2022-12-18T20:51:53.387Z,16.63
2022-12-18T20:54:22.278Z,18.70
2022-12-18T20:56:50.803Z,18.42
2022-12-18T20:59:18.437Z,18.15
2022-12-18T21:01:49.483Z,16.58
2022-12-18T21:04:20.752Z,16.35
2022-12-18T21:06:55.822Z,16.52
2022-12-18T21:09:31.591Z,16.98
2022-12-18T21:12:40.568Z,16.23
2022-12-18T21:15:51.025Z,15.60
2022-12-18T21:18:18.222Z,17.08
2022-12-18T21:21:27.182Z,17.63
2022-12-18T21:24:00.374Z,17.60
2022-12-18T21:26:51.536Z,15.43
2022-12-18T21:29:24.798Z,16.30
2022-12-18T21:31:57.578Z,17.50
2022-12-18T21:34:28.012Z,18.25
2022-12-18T21:36:57.359Z,15.57
2022-12-18T21:39:25.753Z,18.08
2022-12-18T21:42:11.688Z,15.73
2022-12-18T21:44:41.536Z,16.08
2022-12-18T21:47:22.933Z,19.25
2022-12-18T21:49:52.695Z,16.95
2022-12-18T21:52:20.115Z,16.17
2022-12-18T21:54:50.286Z,16.02
2022-12-18T21:57:18.582Z,15.98
2022-12-18T21:59:45.135Z,16.17
2022-12-18T22:02:15.753Z,14.52
2022-12-18T22:04:43.874Z,18.08
2022-12-18T22:07:10.964Z,17.98
2022-12-18T22:09:38.149Z,18.98
2022-12-18T22:12:05.296Z,19.30
2022-12-18T22:14:31.931Z,17.05
2022-12-18T22:16:58.744Z,26.17
2022-12-18T22:19:29.017Z,24.77
2022-12-18T22:21:58.966Z,21.00
2022-12-18T22:24:29.242Z,20.02
2022-12-18T22:27:01.721Z,20.30
2022-12-18T22:29:50.491Z,20.15
2022-12-18T22:32:21.442Z,17.73
2022-12-18T22:35:03.082Z,18.45
2022-12-18T22:37:33.032Z,18.35
2022-12-18T22:40:03.150Z,17.08
2022-12-18T22:42:34.193Z,17.00
2022-12-18T22:45:01.227Z,15.40
2022-12-18T22:47:30.351Z,14.82
2022-12-18T22:49:58.315Z,18.25
2022-12-18T22:52:25.793Z,16.42
2022-12-18T22:54:54.187Z,15.57
2022-12-18T22:57:27.591Z,13.57
2022-12-18T22:59:54.535Z,17.48
